createdAt,value
2017-06-14T00:01:32.433Z,56.9
2017-06-14T00:03:48.075Z,56.99
2017-06-14T00:05:32.565Z,56.99
2017-06-14T00:07:48.255Z,58.24
2017-06-14T00:10:12.349Z,57.95
2017-06-14T00:12:36.420Z,58.98
2017-06-14T00:15:00.496Z,58.15
2017-06-14T00:17:24.581Z,58.24
2017-06-14T00:19:48.658Z,58.05
2017-06-14T00:21:50.027Z,58.98
2017-06-14T00:24:05.701Z,59.37
2017-06-14T00:26:21.280Z,58.92
2017-06-14T00:28:45.362Z,60.69
2017-06-14T00:31:09.442Z,60.69
2017-06-14T00:33:33.529Z,59.47
2017-06-14T00:35:57.606Z,60.24
2017-06-14T00:38:13.296Z,60.24
2017-06-14T00:40:37.273Z,60.24
2017-06-14T00:43:01.356Z,61.16
2017-06-14T00:45:16.939Z,60.33
2017-06-14T00:47:41.013Z,59.47
2017-06-14T00:50:05.095Z,60.14
2017-06-14T00:52:29.072Z,59.66
2017-06-14T00:54:53.156Z,60.78
2017-06-14T00:57:17.243Z,62.03
2017-06-14T00:59:41.320Z,62.03
2017-06-14T01:01:56.909Z,62.77
2017-06-14T01:04:12.491Z,63.6
2017-06-14T01:06:13.842Z,63.51
2017-06-14T01:08:37.914Z,63.6
2017-06-14T01:10:53.496Z,63.64
2017-06-14T01:13:17.478Z,63.83
2017-06-14T01:15:41.455Z,64.66
2017-06-14T01:18:05.437Z,63.64
2017-06-14T01:20:29.422Z,62.8
2017-06-14T01:22:45.002Z,63.79
2017-06-14T01:25:08.976Z,64.28
2017-06-14T01:27:32.954Z,63.64
2017-06-14T01:29:56.934Z,63.64
2017-06-14T01:32:12.516Z,63.64
2017-06-14T01:34:36.494Z,62.96
2017-06-14T01:37:00.475Z,64.95
2017-06-14T01:39:16.060Z,63.45
2017-06-14T01:41:40.038Z,63.64
2017-06-14T01:43:41.892Z,63.45
2017-06-14T01:46:05.881Z,63.45
2017-06-14T01:48:29.857Z,63.73
2017-06-14T01:50:45.409Z,63.15
2017-06-14T01:53:09.422Z,62.51
2017-06-14T01:55:24.972Z,64.28
2017-06-14T01:57:48.884Z,64.31
2017-06-14T02:00:12.856Z,66.26
2017-06-14T02:02:28.436Z,66
2017-06-14T02:04:52.430Z,66.64
2017-06-14T02:07:16.396Z,66.64
2017-06-14T02:09:17.747Z,66.3
2017-06-14T02:11:33.332Z,65.53
2017-06-14T02:13:48.915Z,66.2
2017-06-14T02:16:04.460Z,66
2017-06-14T02:18:19.948Z,67.13
2017-06-14T02:20:43.957Z,66.84
2017-06-14T02:23:07.828Z,67.13
2017-06-14T02:25:31.814Z,67.13
2017-06-14T02:27:55.788Z,67.7
2017-06-14T02:30:19.766Z,67.8
2017-06-14T02:32:43.762Z,67.8
2017-06-14T02:34:59.227Z,68.53
2017-06-14T02:37:23.209Z,67.41
2017-06-14T02:39:47.186Z,67.8
2017-06-14T02:42:11.170Z,67.7
2017-06-14T02:44:12.996Z,67.07
2017-06-14T02:46:37.009Z,67.8
2017-06-14T02:49:00.985Z,67.51
2017-06-14T02:51:24.967Z,69.53
2017-06-14T02:53:48.943Z,71.19
2017-06-14T02:56:12.924Z,71.28
2017-06-14T02:58:36.815Z,72.78
2017-06-14T03:01:00.682Z,70.61
2017-06-14T03:03:24.554Z,69.97
2017-06-14T03:05:25.870Z,68.73
2017-06-14T03:07:49.783Z,69.84
2017-06-14T03:10:13.663Z,71.47
2017-06-14T03:12:37.537Z,71.86
2017-06-14T03:15:01.409Z,69.78
2017-06-14T03:17:25.289Z,69.78
2017-06-14T03:19:49.190Z,69.93
2017-06-14T03:22:04.644Z,69.3
2017-06-14T03:24:20.123Z,68.63
2017-06-14T03:26:43.998Z,68.63
2017-06-14T03:29:07.885Z,68.24
2017-06-14T03:31:31.754Z,69.4
2017-06-14T03:33:38.836Z,69.59
2017-06-14T03:36:02.727Z,69.14
2017-06-14T03:38:26.593Z,69.3
2017-06-14T03:40:33.675Z,68.95
2017-06-14T03:42:57.555Z,69.59
2017-06-14T03:45:13.033Z,70.26
2017-06-14T03:47:36.910Z,67.9
2017-06-14T03:49:52.398Z,66.68
2017-06-14T03:52:07.876Z,65.08
2017-06-14T03:54:09.210Z,64.05
2017-06-14T03:56:33.210Z,64.89
2017-06-14T03:58:57.178Z,65.08
2017-06-14T04:01:21.170Z,64.12
2017-06-14T04:03:45.146Z,65.17
2017-06-14T04:06:09.124Z,65.27
2017-06-14T04:08:33.106Z,63.67
2017-06-14T04:10:57.089Z,63.48
2017-06-14T04:13:21.177Z,63.57
2017-06-14T04:15:36.751Z,63.09
2017-06-14T04:18:00.833Z,62.77
2017-06-14T04:20:24.912Z,60.1
2017-06-14T04:22:35.284Z,53.97
2017-06-14T04:24:59.463Z,53.11
2017-06-14T04:27:15.258Z,49.54
2017-06-14T04:29:39.551Z,46.48
2017-06-14T04:32:03.946Z,42.4
2017-06-14T04:34:28.448Z,38.15
2017-06-14T04:36:53.043Z,37.68
2017-06-14T04:39:17.751Z,39.37
2017-06-14T04:41:34.072Z,37.19
2017-06-14T04:43:41.969Z,34.76
2017-06-14T04:46:06.859Z,31.67
2017-06-14T04:48:23.371Z,33.48
2017-06-14T04:50:48.373Z,33.36
2017-06-14T04:53:04.980Z,36.61
2017-06-14T04:55:21.586Z,32.34
2017-06-14T04:57:46.698Z,34.14
2017-06-14T04:59:54.808Z,34.37
2017-06-14T05:02:11.423Z,36.69
2017-06-14T05:04:36.514Z,32.6
2017-06-14T05:07:01.625Z,32.23
2017-06-14T05:09:26.725Z,30.77
2017-06-14T05:11:51.837Z,29.93
2017-06-14T05:14:17.044Z,30.68
2017-06-14T05:16:33.753Z,31.92
2017-06-14T05:18:58.968Z,32.01
2017-06-14T05:21:15.683Z,33.43
2017-06-14T05:25:16.793Z,26.4
2017-06-14T05:27:42.168Z,29.34
2017-06-14T05:30:07.574Z,30.1
2017-06-14T05:32:24.489Z,30.29
2017-06-14T05:34:50.010Z,27.92
2017-06-14T05:37:15.630Z,22.35
2017-06-14T05:39:41.361Z,24.48
2017-06-14T05:41:58.584Z,21.33
2017-06-14T05:44:24.411Z,18.05
2017-06-14T05:46:50.329Z,22.15
2017-06-14T05:49:07.761Z,21.77
2017-06-14T05:51:34.229Z,22.16
2017-06-14T05:53:59.838Z,22.47
2017-06-14T05:56:25.876Z,19.95
2017-06-14T05:58:51.985Z,21.78
2017-06-14T06:01:18.047Z,19.95
2017-06-14T06:03:44.149Z,19.07
2017-06-14T06:06:10.277Z,20.5
2017-06-14T06:08:36.402Z,18.04
2017-06-14T06:11:02.537Z,17.63
2017-06-14T06:13:28.666Z,20.52
2017-06-14T06:15:54.689Z,22.35
2017-06-14T06:18:20.603Z,20.04
2017-06-14T06:20:46.544Z,20.99
2017-06-14T06:23:12.439Z,23.78
2017-06-14T06:25:22.951Z,23.6
2017-06-14T06:27:33.410Z,25.49
2017-06-14T06:29:59.195Z,24.92
2017-06-14T06:32:25.019Z,23.6
2017-06-14T06:34:42.244Z,26.92
2017-06-14T06:37:08.067Z,25.5
2017-06-14T06:39:25.396Z,25.7
2017-06-14T06:41:51.318Z,27.98
2017-06-14T06:44:17.232Z,27.8
2017-06-14T06:46:43.163Z,28.45
2017-06-14T06:49:00.492Z,27.33
2017-06-14T06:51:17.807Z,27.81
2017-06-14T06:53:35.030Z,26.48
2017-06-14T06:55:43.651Z,27.03
2017-06-14T06:58:09.366Z,25.81
2017-06-14T07:00:26.482Z,25.03
2017-06-14T07:02:52.208Z,27.42
2017-06-14T07:05:17.915Z,26.55
2017-06-14T07:07:43.534Z,25.12
2017-06-14T07:10:00.644Z,27.9
2017-06-14T07:12:18.687Z,25.46
2017-06-14T07:14:44.201Z,27.97
2017-06-14T07:17:09.616Z,26.95
2017-06-14T07:19:35.126Z,26.95
2017-06-14T07:22:00.550Z,27.34
2017-06-14T07:24:17.479Z,27.01
2017-06-14T07:26:34.363Z,25.72
2017-06-14T07:28:59.781Z,23.53
2017-06-14T07:31:16.677Z,25.77
2017-06-14T07:33:42.220Z,27.8
2017-06-14T07:36:07.739Z,23.62
2017-06-14T07:38:33.263Z,25.7
2017-06-14T07:40:58.751Z,24.27
2017-06-14T07:43:25.334Z,25.13
2017-06-14T07:45:50.946Z,25.82
2017-06-14T07:48:16.460Z,26.45
2017-06-14T07:50:41.980Z,24.64
2017-06-14T07:53:07.467Z,24.27
2017-06-14T07:55:33.089Z,24.46
2017-06-14T07:57:35.340Z,25.32
2017-06-14T08:00:01.090Z,24.93
2017-06-14T08:02:03.407Z,23.3
2017-06-14T08:04:29.181Z,22.16
2017-06-14T08:06:31.499Z,25.79
2017-06-14T08:08:57.273Z,24.82
2017-06-14T08:11:23.007Z,25.38
2017-06-14T08:13:25.325Z,24.53
2017-06-14T08:15:43.569Z,26.54
2017-06-14T08:18:09.345Z,24.62
2017-06-14T08:20:35.042Z,25.39
2017-06-14T08:23:01.787Z,24.32
2017-06-14T08:25:27.523Z,23.94
2017-06-14T08:27:54.279Z,23.02
2017-06-14T08:30:21.046Z,23.78
2017-06-14T08:32:48.757Z,22.62
2017-06-14T08:35:14.518Z,23.4
2017-06-14T08:37:40.151Z,22.06
2017-06-14T08:40:05.936Z,19.28
2017-06-14T08:42:32.695Z,22.13
2017-06-14T08:44:58.418Z,22.42
2017-06-14T08:47:24.148Z,23.39
2017-06-14T08:49:49.855Z,22.05
2017-06-14T08:52:15.569Z,20.41
2017-06-14T08:54:41.277Z,20.5
2017-06-14T08:57:07.025Z,23.78
2017-06-14T08:59:15.724Z,23.5
2017-06-14T09:01:41.445Z,22.42
2017-06-14T09:04:07.178Z,21.48
2017-06-14T09:06:24.354Z,21.1
2017-06-14T09:08:50.109Z,22.52
2017-06-14T09:11:15.830Z,22.03
2017-06-14T09:13:41.553Z,23.49
2017-06-14T09:16:07.262Z,23.3
2017-06-14T09:18:32.982Z,27.88
2017-06-14T09:20:58.615Z,27.11
2017-06-14T09:23:24.215Z,24.82
2017-06-14T09:25:41.243Z,27.78
2017-06-14T09:28:06.860Z,24.46
2017-06-14T09:30:32.468Z,23.97
2017-06-14T09:32:57.981Z,25.59
2017-06-14T09:35:23.498Z,25.78
2017-06-14T09:37:49.003Z,24.74
2017-06-14T09:40:06.024Z,24.27
2017-06-14T09:42:31.535Z,24.26
2017-06-14T09:44:48.539Z,26.81
2017-06-14T09:47:13.944Z,25.79
2017-06-14T09:49:30.875Z,23.61
2017-06-14T09:51:47.792Z,25.12
2017-06-14T09:54:13.310Z,24.85
2017-06-14T09:56:30.230Z,25.99
2017-06-14T09:58:31.943Z,25.62
2017-06-14T10:00:57.394Z,25.81
2017-06-14T10:03:22.910Z,25.9
2017-06-14T10:05:48.428Z,28.75
2017-06-14T10:08:13.840Z,29.7
2017-06-14T10:10:39.253Z,28.65
2017-06-14T10:13:04.557Z,29.63
2017-06-14T10:15:21.377Z,28.75
2017-06-14T10:17:32.158Z,30.77
2017-06-14T10:19:57.551Z,32.09
2017-06-14T10:22:22.857Z,29.14
2017-06-14T10:24:39.565Z,29.63
2017-06-14T10:26:56.292Z,29.83
2017-06-14T10:29:12.930Z,30.59
2017-06-14T10:31:38.085Z,32.87
2017-06-14T10:34:03.289Z,33.15
2017-06-14T10:36:28.503Z,32.7
2017-06-14T10:38:53.621Z,32.21
2017-06-14T10:41:01.822Z,32.11
2017-06-14T10:43:27.014Z,34.78
2017-06-14T10:45:52.134Z,34.12
2017-06-14T10:48:17.230Z,34.42
2017-06-14T10:50:42.272Z,34.81
2017-06-14T10:53:07.335Z,33.93
2017-06-14T10:57:08.741Z,34.05
2017-06-14T10:59:16.822Z,34.32
2017-06-14T11:01:41.815Z,35.06
2017-06-14T11:04:06.825Z,33.56
2017-06-14T11:06:31.826Z,32.23
2017-06-14T11:08:56.821Z,35.16
2017-06-14T11:11:21.828Z,35.16
2017-06-14T11:13:46.829Z,35.85
2017-06-14T11:16:11.734Z,34.71
2017-06-14T11:18:36.742Z,34.34
2017-06-14T11:21:01.737Z,35.57
2017-06-14T11:23:26.747Z,35.38
2017-06-14T11:25:51.644Z,36.61
2017-06-14T11:27:59.650Z,37.37
2017-06-14T11:30:24.546Z,36.61
2017-06-14T11:32:49.444Z,35.28
2017-06-14T11:35:14.364Z,36.04
2017-06-14T11:37:39.358Z,35.96
2017-06-14T11:40:04.262Z,34.91
2017-06-14T11:42:29.162Z,35.47
2017-06-14T11:44:30.731Z,34.14
2017-06-14T11:46:55.718Z,34.81
2017-06-14T11:49:20.714Z,34.34
2017-06-14T11:51:37.217Z,36.14
2017-06-14T11:54:02.124Z,35.47
2017-06-14T11:56:27.028Z,36.53
2017-06-14T11:58:51.929Z,35.96
2017-06-14T12:01:16.822Z,34.24
2017-06-14T12:03:33.242Z,34.34
2017-06-14T12:05:58.228Z,35.96
2017-06-14T12:08:23.122Z,35.38
2017-06-14T12:10:48.042Z,34.91
2017-06-14T12:13:12.938Z,34.83
2017-06-14T12:15:37.833Z,34.81
2017-06-14T12:17:54.248Z,36.53
2017-06-14T12:20:19.146Z,36.43
2017-06-14T12:22:21.247Z,36.45
2017-06-14T12:24:46.209Z,36.72
2017-06-14T12:27:11.207Z,35
2017-06-14T12:29:36.216Z,34.92
2017-06-14T12:32:01.124Z,35
2017-06-14T12:34:26.020Z,35
2017-06-14T12:36:50.919Z,35.61
2017-06-14T12:38:58.837Z,34.14
2017-06-14T12:41:15.227Z,34.83
2017-06-14T12:43:31.635Z,34.91
2017-06-14T12:45:56.527Z,34.45
2017-06-14T12:48:13.964Z,34.16
2017-06-14T12:50:38.875Z,34.75
2017-06-14T12:53:03.750Z,35.49
2017-06-14T12:55:28.762Z,34.16
2017-06-14T12:57:53.759Z,36.55
2017-06-14T13:00:18.669Z,35.67
2017-06-14T13:02:43.593Z,34.84
2017-06-14T13:05:00.023Z,34.65
2017-06-14T13:07:16.441Z,34.91
2017-06-14T13:09:41.338Z,35.77
2017-06-14T13:12:06.215Z,35.49
2017-06-14T13:14:16.875Z,34.55
2017-06-14T13:16:33.300Z,35.18
2017-06-14T13:18:58.252Z,36.06
2017-06-14T13:21:23.104Z,34.92
2017-06-14T13:23:39.461Z,35.12
2017-06-14T13:26:04.285Z,33.95
2017-06-14T13:28:29.157Z,34.92
2017-06-14T13:30:53.998Z,36.06
2017-06-14T13:33:18.861Z,34.16
2017-06-14T13:35:43.711Z,35.3
2017-06-14T13:38:08.563Z,37.12
2017-06-14T13:40:24.911Z,35.61
2017-06-14T13:42:49.747Z,34.18
2017-06-14T13:45:14.610Z,36.45
2017-06-14T13:47:39.447Z,36.65
2017-06-14T13:50:04.273Z,35.88
2017-06-14T13:52:29.125Z,35.51
2017-06-14T13:54:53.990Z,34.45
2017-06-14T13:57:18.836Z,36.04
2017-06-14T13:59:43.665Z,35.67
2017-06-14T14:02:08.535Z,35.1
2017-06-14T14:04:33.356Z,35.78
2017-06-14T14:06:59.071Z,34.53
2017-06-14T14:09:23.910Z,34.53
2017-06-14T14:11:40.283Z,34.81
2017-06-14T14:14:05.149Z,34.83
2017-06-14T14:16:30.004Z,34.24
2017-06-14T14:18:54.852Z,34.57
2017-06-14T14:21:11.260Z,35.47
2017-06-14T14:23:27.614Z,35.2
2017-06-14T14:25:29.690Z,34.73
2017-06-14T14:27:54.549Z,35.39
2017-06-14T14:30:19.437Z,34.92
2017-06-14T14:32:35.810Z,35.02
2017-06-14T14:35:00.673Z,34.63
2017-06-14T14:37:11.327Z,34.75
2017-06-14T14:39:36.234Z,33.87
2017-06-14T14:42:01.079Z,33.87
2017-06-14T14:44:25.904Z,34.08
2017-06-14T14:46:50.718Z,34.26
2017-06-14T14:49:15.596Z,34.14
2017-06-14T14:51:31.990Z,35.12
2017-06-14T14:53:56.858Z,35.47
2017-06-14T14:56:21.753Z,35
2017-06-14T14:58:46.613Z,34.92
2017-06-14T15:01:11.471Z,34.16
2017-06-14T15:03:36.360Z,34.91
2017-06-14T15:06:01.230Z,34.63
2017-06-14T15:08:26.061Z,34.91
2017-06-14T15:10:50.916Z,34.73
2017-06-14T15:13:15.792Z,33.95
2017-06-14T15:15:40.704Z,33.38
2017-06-14T15:18:05.586Z,33.18
2017-06-14T15:20:21.987Z,33.38
2017-06-14T15:22:46.853Z,34.91
2017-06-14T15:25:11.744Z,34.53
2017-06-14T15:27:36.583Z,33.95
2017-06-14T15:30:01.480Z,34.05
2017-06-14T15:32:17.852Z,34.53
2017-06-14T15:34:42.748Z,34.61
2017-06-14T15:37:07.594Z,35.57
2017-06-14T15:39:32.463Z,34.71
2017-06-14T15:41:57.315Z,35.18
2017-06-14T15:44:22.213Z,34.71
2017-06-14T15:46:47.119Z,35.36
2017-06-14T15:49:12.018Z,35.47
2017-06-14T15:51:36.915Z,35.57
2017-06-14T15:54:01.838Z,35.18
2017-06-14T15:56:26.733Z,35.1
2017-06-14T15:58:51.664Z,34.63
2017-06-14T16:01:16.560Z,34.63
2017-06-14T16:03:18.627Z,34.91
2017-06-14T16:05:43.599Z,34.44
2017-06-14T16:08:08.511Z,34.24
2017-06-14T16:10:25.534Z,34.14
2017-06-14T16:12:50.423Z,34.32
2017-06-14T16:14:52.106Z,34.44
2017-06-14T16:17:08.576Z,34.73
2017-06-14T16:19:33.482Z,35.28
2017-06-14T16:21:58.375Z,35.67
2017-06-14T16:24:23.278Z,34.91
2017-06-14T16:26:56.055Z,35
2017-06-14T16:28:58.134Z,34.81
2017-06-14T16:31:24.313Z,34.99
2017-06-14T16:33:49.155Z,34.81
2017-06-14T16:36:14.982Z,35.28
2017-06-14T16:38:39.782Z,35.57
2017-06-14T16:41:04.717Z,35.86
2017-06-14T16:43:29.487Z,34.89
2017-06-14T16:45:54.285Z,35.75
2017-06-14T16:48:19.204Z,35.28
2017-06-14T16:50:44.088Z,34.34
2017-06-14T16:53:08.986Z,35.57
2017-06-14T16:55:25.310Z,35.83
2017-06-14T16:57:24.666Z,35.57
2017-06-14T16:59:49.592Z,34.99
2017-06-14T17:02:14.487Z,35.28
2017-06-14T17:04:30.894Z,35.57
2017-06-14T17:06:55.681Z,35.18
2017-06-14T17:09:20.486Z,35.55
2017-06-14T17:11:45.288Z,36.41
2017-06-14T17:13:36.994Z,36.33
2017-06-14T17:16:04.674Z,36.04
2017-06-14T17:18:29.615Z,36.12
2017-06-14T17:20:54.479Z,35.57
2017-06-14T17:23:20.427Z,35.85
2017-06-14T17:25:45.226Z,35.73
2017-06-14T17:28:10.278Z,36.22
2017-06-14T17:30:26.682Z,36.51
2017-06-14T17:32:51.582Z,36.41
2017-06-14T17:35:16.478Z,35.75
2017-06-14T17:37:41.300Z,36.02
2017-06-14T17:40:06.119Z,36.3
2017-06-14T17:42:30.913Z,36.3
2017-06-14T17:44:55.726Z,36.49
2017-06-14T17:47:21.558Z,36.22
2017-06-14T17:49:46.350Z,36.49
2017-06-14T17:52:11.146Z,35.93
2017-06-14T17:54:35.947Z,37.45
2017-06-14T17:57:01.747Z,36.4
2017-06-14T17:59:26.569Z,36.59
2017-06-14T18:01:52.397Z,36.49
2017-06-14T18:04:17.186Z,37.45
2017-06-14T18:06:42.906Z,37.64
2017-06-14T18:09:09.641Z,37.45
2017-06-14T18:11:34.464Z,37.16
2017-06-14T18:14:00.415Z,37.45
2017-06-14T18:16:27.156Z,36.67
2017-06-14T18:18:52.829Z,36.67
2017-06-14T18:21:17.521Z,36.67
2017-06-14T18:23:42.318Z,36.77
2017-06-14T18:26:13.909Z,36.1
2017-06-14T18:30:21.216Z,37.72
2017-06-14T18:32:46.944Z,37.14
2017-06-14T18:35:12.624Z,36.94
2017-06-14T18:37:37.316Z,37.14
2017-06-14T18:39:47.899Z,37.14
2017-06-14T18:42:12.587Z,37.43
2017-06-14T18:44:37.287Z,37.24
2017-06-14T18:47:01.984Z,37.24
2017-06-14T18:49:28.614Z,37.14
2017-06-14T18:51:53.361Z,38.29
2017-06-14T18:54:17.882Z,37.99
2017-06-14T18:56:42.615Z,38.39
2017-06-14T18:59:07.303Z,38.57
2017-06-14T19:01:32.028Z,38.29
2017-06-14T19:03:56.589Z,38.29
2017-06-14T19:06:21.214Z,38.75
2017-06-14T19:08:28.878Z,38.96
2017-06-14T19:10:45.116Z,39.82
2017-06-14T19:13:09.665Z,40.01
2017-06-14T19:15:34.270Z,39.36
2017-06-14T19:17:58.954Z,40.01
2017-06-14T19:20:23.563Z,40.5
2017-06-14T19:22:48.138Z,40.69
2017-06-14T19:25:12.854Z,40.89
2017-06-14T19:27:37.555Z,40.79
2017-06-14T19:30:02.234Z,40.5
2017-06-14T19:32:12.287Z,40.5
2017-06-14T19:34:36.926Z,40.5
2017-06-14T19:37:01.502Z,40.31
2017-06-14T19:39:03.001Z,40.95
2017-06-14T19:41:19.225Z,40.67
2017-06-14T19:43:35.416Z,40.58
2017-06-14T19:46:00.012Z,40.77
2017-06-14T19:48:24.608Z,41.64
2017-06-14T19:50:40.796Z,41.24
2017-06-14T19:52:48.395Z,41.43
2017-06-14T19:54:42.190Z,41.72
2017-06-14T19:57:06.771Z,41.92
2017-06-14T19:59:31.367Z,42.19
2017-06-14T20:01:55.949Z,41.82
2017-06-14T20:03:57.943Z,42.21
2017-06-14T20:06:22.501Z,42.21
2017-06-14T20:08:47.104Z,42.57
2017-06-14T20:11:03.191Z,42.67
2017-06-14T20:13:19.219Z,42.96
2017-06-14T20:15:43.783Z,42.57
2017-06-14T20:18:08.269Z,43.45
2017-06-14T20:20:32.770Z,43.64
2017-06-14T20:22:57.359Z,43.35
2017-06-14T20:25:21.951Z,43.74
2017-06-14T20:27:38.047Z,44.3
2017-06-14T20:30:02.636Z,44.59
2017-06-14T20:32:27.233Z,44.98
2017-06-14T20:34:51.727Z,44.98
2017-06-14T20:37:16.229Z,45.37
2017-06-14T20:39:40.710Z,45.17
2017-06-14T20:41:56.805Z,46.22
2017-06-14T20:44:12.830Z,46.12
2017-06-14T20:46:37.377Z,45.85
2017-06-14T20:50:39.055Z,46.6
2017-06-14T20:53:03.467Z,46.51
2017-06-14T20:55:05.399Z,46.6
2017-06-14T20:57:29.921Z,46.31
2017-06-14T20:59:54.415Z,47.09
2017-06-14T21:02:18.913Z,47.36
2017-06-14T21:04:43.389Z,47.74
2017-06-14T21:07:07.784Z,48.32
2017-06-14T21:09:32.272Z,48.03
2017-06-14T21:11:56.768Z,48.71
2017-06-14T21:14:21.271Z,48.69
2017-06-14T21:16:45.756Z,48.97
2017-06-14T21:19:10.242Z,49.65
2017-06-14T21:21:34.633Z,49.85
2017-06-14T21:23:50.612Z,49.56
2017-06-14T21:26:06.611Z,50.31
2017-06-14T21:28:30.997Z,50.7
2017-06-14T21:30:55.374Z,50.7
2017-06-14T21:33:19.796Z,50.79
2017-06-14T21:35:44.168Z,50.7
2017-06-14T21:38:08.557Z,50.04
2017-06-14T21:40:32.949Z,50.7
2017-06-14T21:42:57.434Z,51.44
2017-06-14T21:45:13.430Z,52.22
2017-06-14T21:47:37.824Z,52.51
2017-06-14T21:50:02.211Z,52.51
2017-06-14T21:52:26.599Z,52.8
2017-06-14T21:54:50.988Z,52.89
2017-06-14T21:57:15.378Z,52.89
2017-06-14T21:59:39.756Z,53.28
2017-06-14T22:02:04.155Z,53.74
2017-06-14T22:04:28.542Z,54.13
2017-06-14T22:06:52.940Z,54.32
2017-06-14T22:09:17.309Z,54.58
2017-06-14T22:11:41.709Z,54.87
2017-06-14T22:13:57.596Z,54.49
2017-06-14T22:15:59.565Z,54.58
2017-06-14T22:18:23.957Z,54.87
2017-06-14T22:20:39.841Z,54.68
2017-06-14T22:23:04.126Z,54.58
2017-06-14T22:25:28.508Z,54.49
2017-06-14T22:27:44.453Z,55.16
2017-06-14T22:30:08.822Z,55.23
2017-06-14T22:32:33.077Z,55.42
2017-06-14T22:34:48.921Z,55.71
2017-06-14T22:37:04.774Z,54.87
2017-06-14T22:39:29.145Z,54.87
2017-06-14T22:41:53.428Z,54.58
2017-06-14T22:44:17.724Z,54.1
2017-06-14T22:46:33.555Z,54.39
2017-06-14T22:48:34.955Z,54.22
2017-06-14T22:50:59.242Z,54.58
2017-06-14T22:53:15.134Z,54.03
2017-06-14T22:55:31.020Z,54.32
2017-06-14T22:57:46.909Z,54
2017-06-14T23:00:11.203Z,54.97
2017-06-14T23:02:35.487Z,54.68
2017-06-14T23:04:59.765Z,54.77
2017-06-14T23:07:24.066Z,54.13
2017-06-14T23:09:48.345Z,54.13
2017-06-14T23:12:12.631Z,53.91
2017-06-14T23:14:37.026Z,54.22
2017-06-14T23:17:01.315Z,54.19
2017-06-14T23:18:54.291Z,54.71
2017-06-14T23:21:18.654Z,54.03
2017-06-14T23:23:43.040Z,54.61
2017-06-14T23:26:07.319Z,54.58
2017-06-14T23:28:23.212Z,54.97
2017-06-14T23:30:47.497Z,54.87
2017-06-14T23:33:03.388Z,54.41
2017-06-14T23:35:27.803Z,56.03
2017-06-14T23:37:35.277Z,55.83
2017-06-14T23:39:51.105Z,55.38
2017-06-14T23:42:15.454Z,55.07
2017-06-14T23:44:31.337Z,55.55
2017-06-14T23:46:55.620Z,55.45
2017-06-14T23:49:11.509Z,56.03
2017-06-14T23:51:35.800Z,56.2
2017-06-14T23:54:00.086Z,56.29
2017-06-14T23:56:24.374Z,57.35
2017-06-14T23:58:48.664Z,57.35
